Brandon, Michigan
Current Conditions -  °F | °C
As of 6:53 AM on Saturday 20 Dec 2014 (Local Time) from KPTK Reporting Station
Broken Clouds Broken Clouds  
Wind Chill: 21°   Ceiling: 2000
Heat Index: 21°   Visibility: 10mi
Dew Point: 18°   Wind: 0mph
Humidity: 88%   Direction: NA
Pressure: 30.27"   Gusts: NA
Location:  42.8429°N, 83.4301°W
Report Text: KPTK 201153Z 00000KT 10SM BKN020 M06/M08 A3027 RMK AO2 SLP266 I6000 T10611078 11039 21083 58000
Loading
Personal Weather Stations






























Interactive Weather Map New forecast layout! Learn more

10-Day Weather Forecast

Advertisements
Track Severe Weather on mobile